sensor_id;sensor_type;location;lat;lon;timestamp;P1;durP1;ratioP1;P2;durP2;ratioP2
59052;SDS011;44843;44.728;10.396;2023-03-01T00:01:23;32.65;;;18.08;;
59052;SDS011;44843;44.728;10.396;2023-03-01T00:03:49;29.23;;;16.83;;
59052;SDS011;44843;44.728;10.396;2023-03-01T00:06:15;35.17;;;17.38;;
59052;SDS011;44843;44.728;10.396;2023-03-01T00:08:40;28.92;;;16.90;;
59052;SDS011;44843;44.728;10.396;2023-03-01T00:11:07;31.50;;;18.40;;
59052;SDS011;44843;44.728;10.396;2023-03-01T00:13:33;34.13;;;17.63;;
59052;SDS011;44843;44.728;10.396;2023-03-01T00:15:58;32.65;;;17.83;;
59052;SDS011;44843;44.728;10.396;2023-03-01T00:18:24;30.15;;;16.73;;
59052;SDS011;44843;44.728;10.396;2023-03-01T00:20:50;33.30;;;17.77;;
59052;SDS011;44843;44.728;10.396;2023-03-01T00:23:16;29.67;;;16.15;;
59052;SDS011;44843;44.728;10.396;2023-03-01T00:25:42;29.58;;;16.50;;
59052;SDS011;44843;44.728;10.396;2023-03-01T00:28:07;31.63;;;17.58;;
59052;SDS011;44843;44.728;10.396;2023-03-01T00:30:32;35.20;;;16.63;;
59052;SDS011;44843;44.728;10.396;2023-03-01T00:32:58;30.15;;;17.30;;
59052;SDS011;44843;44.728;10.396;2023-03-01T00:35:23;27.35;;;15.98;;
59052;SDS011;44843;44.728;10.396;2023-03-01T00:37:48;28.90;;;17.02;;
59052;SDS011;44843;44.728;10.396;2023-03-01T00:40:23;30.10;;;17.35;;
59052;SDS011;44843;44.728;10.396;2023-03-01T00:42:49;25.30;;;15.65;;
59052;SDS011;44843;44.728;10.396;2023-03-01T00:45:14;30.80;;;17.15;;
59052;SDS011;44843;44.728;10.396;2023-03-01T00:47:39;29.33;;;15.63;;
59052;SDS011;44843;44.728;10.396;2023-03-01T00:50:04;28.70;;;15.40;;
59052;SDS011;44843;44.728;10.396;2023-03-01T00:52:30;30.23;;;15.68;;
59052;SDS011;44843;44.728;10.396;2023-03-01T00:54:55;27.00;;;15.57;;
59052;SDS011;44843;44.728;10.396;2023-03-01T00:57:20;30.45;;;16.40;;
59052;SDS011;44843;44.728;10.396;2023-03-01T00:59:45;29.52;;;15.00;;
59052;SDS011;44843;44.728;10.396;2023-03-01T01:02:11;28.33;;;16.15;;
59052;SDS011;44843;44.728;10.396;2023-03-01T01:04:36;26.42;;;15.50;;
59052;SDS011;44843;44.728;10.396;2023-03-01T01:07:01;27.55;;;15.30;;
59052;SDS011;44843;44.728;10.396;2023-03-01T01:09:26;26.30;;;15.10;;
59052;SDS011;44843;44.728;10.396;2023-03-01T01:11:51;27.85;;;14.73;;
59052;SDS011;44843;44.728;10.396;2023-03-01T01:14:17;26.52;;;14.35;;
59052;SDS011;44843;44.728;10.396;2023-03-01T01:16:43;24.63;;;12.80;;
59052;SDS011;44843;44.728;10.396;2023-03-01T01:19:09;21.60;;;12.45;;
59052;SDS011;44843;44.728;10.396;2023-03-01T01:21:34;19.98;;;12.07;;
59052;SDS011;44843;44.728;10.396;2023-03-01T01:23:59;22.90;;;11.80;;
59052;SDS011;44843;44.728;10.396;2023-03-01T01:26:26;25.67;;;13.50;;
59052;SDS011;44843;44.728;10.396;2023-03-01T01:28:51;23.13;;;11.57;;
59052;SDS011;44843;44.728;10.396;2023-03-01T01:31:17;23.08;;;12.65;;
59052;SDS011;44843;44.728;10.396;2023-03-01T01:33:42;24.05;;;13.27;;
59052;SDS011;44843;44.728;10.396;2023-03-01T01:36:07;22.83;;;12.73;;
59052;SDS011;44843;44.728;10.396;2023-03-01T01:38:33;25.63;;;13.07;;
59052;SDS011;44843;44.728;10.396;2023-03-01T01:40:58;24.02;;;12.20;;
59052;SDS011;44843;44.728;10.396;2023-03-01T01:43:28;20.70;;;12.35;;
59052;SDS011;44843;44.728;10.396;2023-03-01T01:45:57;28.92;;;13.05;;
59052;SDS011;44843;44.728;10.396;2023-03-01T01:48:24;21.70;;;12.32;;
59052;SDS011;44843;44.728;10.396;2023-03-01T01:51:05;19.85;;;12.15;;
59052;SDS011;44843;44.728;10.396;2023-03-01T01:53:30;23.58;;;13.00;;
59052;SDS011;44843;44.728;10.396;2023-03-01T01:55:56;23.60;;;13.23;;
59052;SDS011;44843;44.728;10.396;2023-03-01T01:58:23;23.23;;;12.65;;
59052;SDS011;44843;44.728;10.396;2023-03-01T02:00:49;24.35;;;12.80;;
59052;SDS011;44843;44.728;10.396;2023-03-01T02:03:17;21.50;;;12.02;;
59052;SDS011;44843;44.728;10.396;2023-03-01T02:08:18;23.38;;;11.95;;
59052;SDS011;44843;44.728;10.396;2023-03-01T02:10:44;26.27;;;13.82;;
59052;SDS011;44843;44.728;10.396;2023-03-01T02:13:10;22.90;;;11.63;;
59052;SDS011;44843;44.728;10.396;2023-03-01T02:15:36;29.48;;;13.98;;
59052;SDS011;44843;44.728;10.396;2023-03-01T02:18:02;28.38;;;13.30;;
59052;SDS011;44843;44.728;10.396;2023-03-01T02:20:35;29.10;;;14.05;;
59052;SDS011;44843;44.728;10.396;2023-03-01T02:23:04;26.52;;;13.00;;
59052;SDS011;44843;44.728;10.396;2023-03-01T02:28:01;26.45;;;13.45;;
59052;SDS011;44843;44.728;10.396;2023-03-01T02:30:30;21.50;;;12.27;;
59052;SDS011;44843;44.728;10.396;2023-03-01T02:32:56;26.48;;;12.43;;
59052;SDS011;44843;44.728;10.396;2023-03-01T02:35:27;22.67;;;12.65;;
59052;SDS011;44843;44.728;10.396;2023-03-01T02:37:54;21.05;;;11.77;;
59052;SDS011;44843;44.728;10.396;2023-03-01T02:40:22;22.42;;;12.68;;
59052;SDS011;44843;44.728;10.396;2023-03-01T02:42:51;19.15;;;12.18;;
59052;SDS011;44843;44.728;10.396;2023-03-01T02:45:18;21.13;;;11.70;;
59052;SDS011;44843;44.728;10.396;2023-03-01T02:47:44;18.60;;;11.73;;
59052;SDS011;44843;44.728;10.396;2023-03-01T02:50:36;22.45;;;12.52;;
59052;SDS011;44843;44.728;10.396;2023-03-01T02:53:08;19.55;;;11.50;;
59052;SDS011;44843;44.728;10.396;2023-03-01T02:55:35;21.30;;;12.05;;
59052;SDS011;44843;44.728;10.396;2023-03-01T02:58:02;23.13;;;11.43;;
59052;SDS011;44843;44.728;10.396;2023-03-01T03:00:28;23.40;;;12.48;;
59052;SDS011;44843;44.728;10.396;2023-03-01T03:02:58;26.17;;;12.98;;
59052;SDS011;44843;44.728;10.396;2023-03-01T03:05:24;24.15;;;13.18;;
59052;SDS011;44843;44.728;10.396;2023-03-01T03:07:50;24.63;;;12.75;;
59052;SDS011;44843;44.728;10.396;2023-03-01T03:10:18;21.73;;;11.70;;
59052;SDS011;44843;44.728;10.396;2023-03-01T03:12:44;23.90;;;12.60;;
59052;SDS011;44843;44.728;10.396;2023-03-01T03:15:13;24.30;;;12.90;;
59052;SDS011;44843;44.728;10.396;2023-03-01T03:17:39;21.63;;;11.70;;
59052;SDS011;44843;44.728;10.396;2023-03-01T03:20:05;24.25;;;13.50;;
59052;SDS011;44843;44.728;10.396;2023-03-01T03:22:35;25.73;;;12.55;;
59052;SDS011;44843;44.728;10.396;2023-03-01T03:25:01;21.38;;;12.35;;
59052;SDS011;44843;44.728;10.396;2023-03-01T03:27:27;22.67;;;13.18;;
59052;SDS011;44843;44.728;10.396;2023-03-01T03:29:52;26.45;;;12.27;;
59052;SDS011;44843;44.728;10.396;2023-03-01T03:32:17;23.70;;;12.45;;
59052;SDS011;44843;44.728;10.396;2023-03-01T03:34:43;23.52;;;12.98;;
59052;SDS011;44843;44.728;10.396;2023-03-01T03:37:08;24.60;;;12.18;;
59052;SDS011;44843;44.728;10.396;2023-03-01T03:39:53;20.60;;;12.40;;
59052;SDS011;44843;44.728;10.396;2023-03-01T03:42:20;27.77;;;11.73;;
59052;SDS011;44843;44.728;10.396;2023-03-01T03:44:45;24.42;;;11.88;;
59052;SDS011;44843;44.728;10.396;2023-03-01T03:47:10;22.85;;;11.98;;
59052;SDS011;44843;44.728;10.396;2023-03-01T03:49:35;22.88;;;12.00;;
59052;SDS011;44843;44.728;10.396;2023-03-01T03:52:00;23.17;;;12.90;;
59052;SDS011;44843;44.728;10.396;2023-03-01T03:54:26;19.00;;;12.82;;
59052;SDS011;44843;44.728;10.396;2023-03-01T03:56:51;21.20;;;11.18;;
59052;SDS011;44843;44.728;10.396;2023-03-01T03:59:16;22.35;;;11.63;;
59052;SDS011;44843;44.728;10.396;2023-03-01T04:01:41;19.25;;;11.85;;
59052;SDS011;44843;44.728;10.396;2023-03-01T04:04:06;21.73;;;12.13;;
59052;SDS011;44843;44.728;10.396;2023-03-01T04:06:32;19.52;;;11.88;;
59052;SDS011;44843;44.728;10.396;2023-03-01T04:08:58;21.98;;;11.13;;
59052;SDS011;44843;44.728;10.396;2023-03-01T04:11:24;23.50;;;11.85;;
59052;SDS011;44843;44.728;10.396;2023-03-01T04:13:54;18.27;;;10.40;;
59052;SDS011;44843;44.728;10.396;2023-03-01T04:16:20;20.48;;;11.27;;
59052;SDS011;44843;44.728;10.396;2023-03-01T04:18:46;22.13;;;12.02;;
59052;SDS011;44843;44.728;10.396;2023-03-01T04:21:11;19.08;;;10.82;;
59052;SDS011;44843;44.728;10.396;2023-03-01T04:23:37;20.20;;;11.05;;
59052;SDS011;44843;44.728;10.396;2023-03-01T04:26:02;21.38;;;12.23;;
59052;SDS011;44843;44.728;10.396;2023-03-01T04:28:38;21.70;;;13.10;;
59052;SDS011;44843;44.728;10.396;2023-03-01T04:31:06;26.50;;;12.95;;
59052;SDS011;44843;44.728;10.396;2023-03-01T04:33:38;26.40;;;13.93;;
59052;SDS011;44843;44.728;10.396;2023-03-01T04:36:03;22.75;;;11.90;;
59052;SDS011;44843;44.728;10.396;2023-03-01T04:38:30;21.23;;;11.63;;
59052;SDS011;44843;44.728;10.396;2023-03-01T04:40:55;22.42;;;13.68;;
59052;SDS011;44843;44.728;10.396;2023-03-01T04:43:21;21.33;;;11.40;;
59052;SDS011;44843;44.728;10.396;2023-03-01T04:45:46;23.05;;;12.05;;
59052;SDS011;44843;44.728;10.396;2023-03-01T04:48:11;25.08;;;13.10;;
59052;SDS011;44843;44.728;10.396;2023-03-01T04:50:36;19.88;;;12.50;;
59052;SDS011;44843;44.728;10.396;2023-03-01T04:53:02;21.55;;;12.23;;
59052;SDS011;44843;44.728;10.396;2023-03-01T04:55:27;21.90;;;12.35;;
59052;SDS011;44843;44.728;10.396;2023-03-01T04:57:53;20.67;;;12.27;;
59052;SDS011;44843;44.728;10.396;2023-03-01T05:00:18;26.35;;;12.73;;
59052;SDS011;44843;44.728;10.396;2023-03-01T05:02:47;24.23;;;13.20;;
59052;SDS011;44843;44.728;10.396;2023-03-01T05:05:13;25.45;;;13.18;;
59052;SDS011;44843;44.728;10.396;2023-03-01T05:07:38;24.95;;;13.27;;
59052;SDS011;44843;44.728;10.396;2023-03-01T05:10:04;26.23;;;13.02;;
59052;SDS011;44843;44.728;10.396;2023-03-01T05:12:29;23.83;;;12.68;;
59052;SDS011;44843;44.728;10.396;2023-03-01T05:14:54;25.08;;;12.93;;
59052;SDS011;44843;44.728;10.396;2023-03-01T05:17:19;22.92;;;13.60;;
59052;SDS011;44843;44.728;10.396;2023-03-01T05:19:45;22.25;;;12.70;;
59052;SDS011;44843;44.728;10.396;2023-03-01T05:22:11;23.52;;;12.95;;
59052;SDS011;44843;44.728;10.396;2023-03-01T05:24:36;24.98;;;12.60;;
59052;SDS011;44843;44.728;10.396;2023-03-01T05:27:01;26.27;;;13.52;;
59052;SDS011;44843;44.728;10.396;2023-03-01T05:29:28;22.60;;;12.38;;
59052;SDS011;44843;44.728;10.396;2023-03-01T05:31:57;22.45;;;12.30;;
59052;SDS011;44843;44.728;10.396;2023-03-01T05:34:26;23.77;;;12.45;;
59052;SDS011;44843;44.728;10.396;2023-03-01T05:36:52;22.55;;;12.82;;
59052;SDS011;44843;44.728;10.396;2023-03-01T05:39:19;25.58;;;13.77;;
59052;SDS011;44843;44.728;10.396;2023-03-01T05:41:44;27.83;;;14.15;;
59052;SDS011;44843;44.728;10.396;2023-03-01T05:44:09;41.75;;;20.23;;
59052;SDS011;44843;44.728;10.396;2023-03-01T05:46:36;29.35;;;14.23;;
59052;SDS011;44843;44.728;10.396;2023-03-01T05:49:01;26.92;;;13.27;;
59052;SDS011;44843;44.728;10.396;2023-03-01T05:51:27;20.38;;;12.13;;
59052;SDS011;44843;44.728;10.396;2023-03-01T05:53:52;21.27;;;12.50;;
59052;SDS011;44843;44.728;10.396;2023-03-01T05:56:17;19.83;;;11.48;;
59052;SDS011;44843;44.728;10.396;2023-03-01T05:58:43;23.30;;;11.85;;
59052;SDS011;44843;44.728;10.396;2023-03-01T06:01:11;20.35;;;11.43;;
59052;SDS011;44843;44.728;10.396;2023-03-01T06:03:36;22.08;;;11.48;;
59052;SDS011;44843;44.728;10.396;2023-03-01T06:06:01;22.52;;;12.38;;
59052;SDS011;44843;44.728;10.396;2023-03-01T06:08:27;22.80;;;12.40;;
59052;SDS011;44843;44.728;10.396;2023-03-01T06:10:52;28.13;;;11.82;;
59052;SDS011;44843;44.728;10.396;2023-03-01T06:13:17;24.85;;;12.63;;
59052;SDS011;44843;44.728;10.396;2023-03-01T06:15:42;24.77;;;11.77;;
59052;SDS011;44843;44.728;10.396;2023-03-01T06:18:08;21.98;;;12.55;;
59052;SDS011;44843;44.728;10.396;2023-03-01T06:20:33;21.17;;;11.57;;
59052;SDS011;44843;44.728;10.396;2023-03-01T06:22:58;24.58;;;13.30;;
59052;SDS011;44843;44.728;10.396;2023-03-01T06:25:25;26.05;;;12.93;;
59052;SDS011;44843;44.728;10.396;2023-03-01T06:27:51;23.27;;;12.55;;
59052;SDS011;44843;44.728;10.396;2023-03-01T06:30:18;21.42;;;12.38;;
59052;SDS011;44843;44.728;10.396;2023-03-01T06:32:43;20.25;;;11.95;;
59052;SDS011;44843;44.728;10.396;2023-03-01T06:35:09;22.85;;;12.68;;
59052;SDS011;44843;44.728;10.396;2023-03-01T06:37:36;20.98;;;11.48;;
59052;SDS011;44843;44.728;10.396;2023-03-01T06:40:02;21.55;;;11.27;;
59052;SDS011;44843;44.728;10.396;2023-03-01T06:42:33;26.65;;;11.65;;
59052;SDS011;44843;44.728;10.396;2023-03-01T06:44:58;23.38;;;12.32;;
59052;SDS011;44843;44.728;10.396;2023-03-01T06:47:23;22.75;;;12.38;;
59052;SDS011;44843;44.728;10.396;2023-03-01T06:49:48;21.25;;;11.57;;
59052;SDS011;44843;44.728;10.396;2023-03-01T06:52:14;24.95;;;12.20;;
59052;SDS011;44843;44.728;10.396;2023-03-01T06:54:39;22.20;;;12.07;;
59052;SDS011;44843;44.728;10.396;2023-03-01T06:57:04;20.40;;;11.10;;
59052;SDS011;44843;44.728;10.396;2023-03-01T06:59:29;20.90;;;11.50;;
59052;SDS011;44843;44.728;10.396;2023-03-01T07:01:55;19.83;;;11.48;;
59052;SDS011;44843;44.728;10.396;2023-03-01T07:04:20;24.23;;;11.73;;
59052;SDS011;44843;44.728;10.396;2023-03-01T07:06:45;22.60;;;12.10;;
59052;SDS011;44843;44.728;10.396;2023-03-01T07:09:11;23.15;;;11.18;;
59052;SDS011;44843;44.728;10.396;2023-03-01T07:11:36;22.55;;;11.18;;
59052;SDS011;44843;44.728;10.396;2023-03-01T07:14:01;21.02;;;10.95;;
59052;SDS011;44843;44.728;10.396;2023-03-01T07:16:26;20.90;;;11.82;;
59052;SDS011;44843;44.728;10.396;2023-03-01T07:18:52;21.27;;;12.25;;
59052;SDS011;44843;44.728;10.396;2023-03-01T07:21:17;22.92;;;11.75;;
59052;SDS011;44843;44.728;10.396;2023-03-01T07:23:42;22.23;;;11.50;;
59052;SDS011;44843;44.728;10.396;2023-03-01T07:26:07;22.15;;;12.13;;
59052;SDS011;44843;44.728;10.396;2023-03-01T07:28:32;18.20;;;11.40;;
59052;SDS011;44843;44.728;10.396;2023-03-01T07:31:03;20.73;;;11.38;;
59052;SDS011;44843;44.728;10.396;2023-03-01T07:33:29;21.17;;;11.60;;
59052;SDS011;44843;44.728;10.396;2023-03-01T07:35:57;22.02;;;12.45;;
59052;SDS011;44843;44.728;10.396;2023-03-01T07:38:23;22.58;;;12.20;;
59052;SDS011;44843;44.728;10.396;2023-03-01T07:40:48;20.02;;;11.82;;
59052;SDS011;44843;44.728;10.396;2023-03-01T07:43:14;18.38;;;11.75;;
59052;SDS011;44843;44.728;10.396;2023-03-01T07:45:39;21.83;;;11.50;;
59052;SDS011;44843;44.728;10.396;2023-03-01T07:48:04;21.85;;;11.63;;
59052;SDS011;44843;44.728;10.396;2023-03-01T07:50:30;21.05;;;11.65;;
59052;SDS011;44843;44.728;10.396;2023-03-01T07:52:55;19.98;;;11.50;;
59052;SDS011;44843;44.728;10.396;2023-03-01T07:55:20;24.52;;;11.70;;
59052;SDS011;44843;44.728;10.396;2023-03-01T07:57:45;21.23;;;11.95;;
59052;SDS011;44843;44.728;10.396;2023-03-01T08:00:11;19.77;;;11.80;;
59052;SDS011;44843;44.728;10.396;2023-03-01T08:02:36;22.77;;;11.07;;
59052;SDS011;44843;44.728;10.396;2023-03-01T08:05:02;20.42;;;11.18;;
59052;SDS011;44843;44.728;10.396;2023-03-01T08:07:27;25.90;;;11.50;;
59052;SDS011;44843;44.728;10.396;2023-03-01T08:09:52;20.65;;;11.55;;
59052;SDS011;44843;44.728;10.396;2023-03-01T08:12:17;21.88;;;11.75;;
59052;SDS011;44843;44.728;10.396;2023-03-01T08:14:43;22.77;;;13.15;;
59052;SDS011;44843;44.728;10.396;2023-03-01T08:17:08;26.30;;;12.70;;
59052;SDS011;44843;44.728;10.396;2023-03-01T08:19:33;20.83;;;11.75;;
59052;SDS011;44843;44.728;10.396;2023-03-01T08:21:59;20.60;;;11.23;;
59052;SDS011;44843;44.728;10.396;2023-03-01T08:24:26;26.13;;;12.95;;
59052;SDS011;44843;44.728;10.396;2023-03-01T08:26:51;23.25;;;12.13;;
59052;SDS011;44843;44.728;10.396;2023-03-01T08:29:16;24.27;;;12.82;;
59052;SDS011;44843;44.728;10.396;2023-03-01T08:31:41;21.10;;;10.65;;
59052;SDS011;44843;44.728;10.396;2023-03-01T08:34:08;20.35;;;11.63;;
59052;SDS011;44843;44.728;10.396;2023-03-01T08:36:37;22.02;;;12.80;;
59052;SDS011;44843;44.728;10.396;2023-03-01T08:39:03;23.85;;;12.38;;
59052;SDS011;44843;44.728;10.396;2023-03-01T08:41:29;19.85;;;11.43;;
59052;SDS011;44843;44.728;10.396;2023-03-01T08:43:55;19.67;;;12.63;;
59052;SDS011;44843;44.728;10.396;2023-03-01T08:46:24;21.50;;;12.45;;
59052;SDS011;44843;44.728;10.396;2023-03-01T08:48:49;23.00;;;11.50;;
59052;SDS011;44843;44.728;10.396;2023-03-01T08:51:17;19.95;;;11.60;;
59052;SDS011;44843;44.728;10.396;2023-03-01T08:53:43;20.92;;;11.73;;
59052;SDS011;44843;44.728;10.396;2023-03-01T08:56:09;23.45;;;11.35;;
59052;SDS011;44843;44.728;10.396;2023-03-01T08:58:34;21.15;;;12.35;;
59052;SDS011;44843;44.728;10.396;2023-03-01T09:01:00;21.15;;;12.32;;
59052;SDS011;44843;44.728;10.396;2023-03-01T09:03:25;22.65;;;12.25;;
59052;SDS011;44843;44.728;10.396;2023-03-01T09:05:51;23.17;;;12.65;;
59052;SDS011;44843;44.728;10.396;2023-03-01T09:08:16;23.00;;;10.95;;
59052;SDS011;44843;44.728;10.396;2023-03-01T09:10:42;22.88;;;12.48;;
59052;SDS011;44843;44.728;10.396;2023-03-01T09:13:07;23.08;;;12.52;;
59052;SDS011;44843;44.728;10.396;2023-03-01T09:15:32;21.75;;;12.02;;
59052;SDS011;44843;44.728;10.396;2023-03-01T09:17:58;21.33;;;11.13;;
59052;SDS011;44843;44.728;10.396;2023-03-01T09:20:24;24.10;;;11.73;;
59052;SDS011;44843;44.728;10.396;2023-03-01T09:22:49;25.05;;;11.95;;
59052;SDS011;44843;44.728;10.396;2023-03-01T09:25:14;21.38;;;12.07;;
59052;SDS011;44843;44.728;10.396;2023-03-01T09:27:39;20.83;;;10.45;;
59052;SDS011;44843;44.728;10.396;2023-03-01T09:30:05;19.05;;;10.70;;
59052;SDS011;44843;44.728;10.396;2023-03-01T09:32:31;19.52;;;10.75;;
59052;SDS011;44843;44.728;10.396;2023-03-01T09:34:56;20.65;;;11.85;;
59052;SDS011;44843;44.728;10.396;2023-03-01T09:37:34;24.13;;;11.80;;
59052;SDS011;44843;44.728;10.396;2023-03-01T09:39:59;22.55;;;11.82;;
59052;SDS011;44843;44.728;10.396;2023-03-01T09:42:25;20.75;;;10.70;;
59052;SDS011;44843;44.728;10.396;2023-03-01T09:47:19;22.63;;;12.00;;
59052;SDS011;44843;44.728;10.396;2023-03-01T09:49:49;22.88;;;10.90;;
59052;SDS011;44843;44.728;10.396;2023-03-01T09:54:44;20.05;;;10.10;;
59052;SDS011;44843;44.728;10.396;2023-03-01T09:57:19;19.40;;;10.25;;
59052;SDS011;44843;44.728;10.396;2023-03-01T09:59:49;19.23;;;10.18;;
59052;SDS011;44843;44.728;10.396;2023-03-01T10:02:52;14.52;;;9.55;;
59052;SDS011;44843;44.728;10.396;2023-03-01T10:10:06;17.75;;;10.32;;
59052;SDS011;44843;44.728;10.396;2023-03-01T10:12:33;16.95;;;9.32;;
59052;SDS011;44843;44.728;10.396;2023-03-01T10:19:53;21.58;;;10.13;;
59052;SDS011;44843;44.728;10.396;2023-03-01T10:22:21;17.20;;;10.13;;
59052;SDS011;44843;44.728;10.396;2023-03-01T10:24:47;15.38;;;8.80;;
59052;SDS011;44843;44.728;10.396;2023-03-01T10:27:21;15.95;;;9.63;;
59052;SDS011;44843;44.728;10.396;2023-03-01T10:34:56;19.48;;;9.20;;
59052;SDS011;44843;44.728;10.396;2023-03-01T10:37:22;18.13;;;9.63;;
59052;SDS011;44843;44.728;10.396;2023-03-01T10:40:03;17.80;;;9.93;;
59052;SDS011;44843;44.728;10.396;2023-03-01T10:42:34;17.65;;;9.57;;
59052;SDS011;44843;44.728;10.396;2023-03-01T10:45:14;15.90;;;9.25;;
59052;SDS011;44843;44.728;10.396;2023-03-01T10:47:40;15.70;;;9.50;;
59052;SDS011;44843;44.728;10.396;2023-03-01T10:50:06;19.92;;;10.45;;
59052;SDS011;44843;44.728;10.396;2023-03-01T10:52:42;20.38;;;10.60;;
59052;SDS011;44843;44.728;10.396;2023-03-01T10:55:24;19.58;;;10.02;;
59052;SDS011;44843;44.728;10.396;2023-03-01T10:58:05;19.55;;;10.75;;
59052;SDS011;44843;44.728;10.396;2023-03-01T11:00:30;17.88;;;10.55;;
59052;SDS011;44843;44.728;10.396;2023-03-01T11:05:24;22.35;;;10.48;;
59052;SDS011;44843;44.728;10.396;2023-03-01T11:07:51;18.52;;;10.65;;
59052;SDS011;44843;44.728;10.396;2023-03-01T11:10:18;20.20;;;10.73;;
59052;SDS011;44843;44.728;10.396;2023-03-01T11:12:44;16.85;;;9.77;;
59052;SDS011;44843;44.728;10.396;2023-03-01T11:15:19;19.08;;;10.88;;
59052;SDS011;44843;44.728;10.396;2023-03-01T11:17:44;18.55;;;10.75;;
59052;SDS011;44843;44.728;10.396;2023-03-01T11:22:38;19.73;;;10.13;;
59052;SDS011;44843;44.728;10.396;2023-03-01T11:25:11;18.15;;;10.02;;
59052;SDS011;44843;44.728;10.396;2023-03-01T11:27:40;18.13;;;10.20;;
59052;SDS011;44843;44.728;10.396;2023-03-01T11:30:18;18.48;;;10.05;;
59052;SDS011;44843;44.728;10.396;2023-03-01T11:35:29;19.45;;;10.50;;
59052;SDS011;44843;44.728;10.396;2023-03-01T11:40:24;19.13;;;10.38;;
59052;SDS011;44843;44.728;10.396;2023-03-01T11:45:22;14.85;;;8.55;;
59052;SDS011;44843;44.728;10.396;2023-03-01T11:47:55;17.55;;;9.88;;
59052;SDS011;44843;44.728;10.396;2023-03-01T12:01:10;22.95;;;9.30;;
59052;SDS011;44843;44.728;10.396;2023-03-01T12:22:16;25.48;;;10.77;;
59052;SDS011;44843;44.728;10.396;2023-03-01T12:24:55;18.40;;;10.43;;
59052;SDS011;44843;44.728;10.396;2023-03-01T12:32:40;20.90;;;11.48;;
59052;SDS011;44843;44.728;10.396;2023-03-01T12:35:14;19.33;;;10.35;;
59052;SDS011;44843;44.728;10.396;2023-03-01T12:40:42;20.70;;;10.95;;
59052;SDS011;44843;44.728;10.396;2023-03-01T12:50:40;19.02;;;10.68;;
59052;SDS011;44843;44.728;10.396;2023-03-01T12:53:07;21.73;;;10.57;;
59052;SDS011;44843;44.728;10.396;2023-03-01T13:00:42;20.25;;;11.35;;
59052;SDS011;44843;44.728;10.396;2023-03-01T13:03:14;19.23;;;9.50;;
59052;SDS011;44843;44.728;10.396;2023-03-01T13:08:20;19.33;;;10.25;;
59052;SDS011;44843;44.728;10.396;2023-03-01T13:10:50;23.92;;;12.23;;
59052;SDS011;44843;44.728;10.396;2023-03-01T13:13:24;22.73;;;11.68;;
59052;SDS011;44843;44.728;10.396;2023-03-01T13:15:49;21.23;;;11.25;;
59052;SDS011;44843;44.728;10.396;2023-03-01T13:30:59;17.42;;;10.32;;
59052;SDS011;44843;44.728;10.396;2023-03-01T13:35:53;19.55;;;10.15;;
59052;SDS011;44843;44.728;10.396;2023-03-01T13:38:38;20.17;;;9.35;;
59052;SDS011;44843;44.728;10.396;2023-03-01T13:41:06;21.23;;;10.63;;
59052;SDS011;44843;44.728;10.396;2023-03-01T13:43:35;23.67;;;10.85;;
59052;SDS011;44843;44.728;10.396;2023-03-01T13:46:02;21.38;;;9.80;;
59052;SDS011;44843;44.728;10.396;2023-03-01T13:48:32;18.98;;;10.85;;
59052;SDS011;44843;44.728;10.396;2023-03-01T13:51:08;19.85;;;10.35;;
59052;SDS011;44843;44.728;10.396;2023-03-01T13:53:35;21.90;;;11.85;;
59052;SDS011;44843;44.728;10.396;2023-03-01T13:56:02;23.90;;;10.73;;
59052;SDS011;44843;44.728;10.396;2023-03-01T13:58:32;22.08;;;11.23;;
59052;SDS011;44843;44.728;10.396;2023-03-01T14:00:59;22.77;;;11.05;;
59052;SDS011;44843;44.728;10.396;2023-03-01T14:03:25;21.48;;;11.45;;
59052;SDS011;44843;44.728;10.396;2023-03-01T14:06:01;21.75;;;10.57;;
59052;SDS011;44843;44.728;10.396;2023-03-01T14:08:28;24.92;;;10.57;;
59052;SDS011;44843;44.728;10.396;2023-03-01T14:10:57;22.45;;;11.68;;
59052;SDS011;44843;44.728;10.396;2023-03-01T14:13:30;21.38;;;11.43;;
59052;SDS011;44843;44.728;10.396;2023-03-01T14:18:54;23.13;;;12.55;;
59052;SDS011;44843;44.728;10.396;2023-03-01T14:21:23;21.70;;;10.93;;
59052;SDS011;44843;44.728;10.396;2023-03-01T14:23:50;20.05;;;11.13;;
59052;SDS011;44843;44.728;10.396;2023-03-01T14:26:20;21.38;;;10.65;;
59052;SDS011;44843;44.728;10.396;2023-03-01T14:28:45;21.92;;;10.98;;
59052;SDS011;44843;44.728;10.396;2023-03-01T14:33:55;22.45;;;12.05;;
59052;SDS011;44843;44.728;10.396;2023-03-01T14:36:25;19.85;;;10.57;;
59052;SDS011;44843;44.728;10.396;2023-03-01T14:38:51;20.98;;;10.80;;
59052;SDS011;44843;44.728;10.396;2023-03-01T14:41:19;20.80;;;11.13;;
59052;SDS011;44843;44.728;10.396;2023-03-01T14:48:58;24.48;;;11.18;;
59052;SDS011;44843;44.728;10.396;2023-03-01T14:51:25;25.98;;;11.60;;
59052;SDS011;44843;44.728;10.396;2023-03-01T14:53:51;21.20;;;10.68;;
59052;SDS011;44843;44.728;10.396;2023-03-01T14:56:16;19.40;;;9.65;;
59052;SDS011;44843;44.728;10.396;2023-03-01T14:58:45;23.50;;;10.77;;
59052;SDS011;44843;44.728;10.396;2023-03-01T15:01:16;19.55;;;10.77;;
59052;SDS011;44843;44.728;10.396;2023-03-01T15:03:42;17.48;;;9.77;;
59052;SDS011;44843;44.728;10.396;2023-03-01T15:06:08;17.35;;;10.13;;
59052;SDS011;44843;44.728;10.396;2023-03-01T15:08:34;19.63;;;10.80;;
59052;SDS011;44843;44.728;10.396;2023-03-01T15:13:30;22.25;;;11.57;;
59052;SDS011;44843;44.728;10.396;2023-03-01T15:16:11;20.70;;;10.38;;
59052;SDS011;44843;44.728;10.396;2023-03-01T15:18:38;20.60;;;11.45;;
59052;SDS011;44843;44.728;10.396;2023-03-01T15:21:18;24.63;;;11.95;;
59052;SDS011;44843;44.728;10.396;2023-03-01T15:23:48;24.90;;;12.35;;
59052;SDS011;44843;44.728;10.396;2023-03-01T15:26:24;25.38;;;11.68;;
59052;SDS011;44843;44.728;10.396;2023-03-01T15:28:51;21.08;;;11.77;;
59052;SDS011;44843;44.728;10.396;2023-03-01T15:31:20;21.77;;;10.88;;
59052;SDS011;44843;44.728;10.396;2023-03-01T15:33:46;25.17;;;10.48;;
59052;SDS011;44843;44.728;10.396;2023-03-01T15:38:58;17.95;;;9.80;;
59052;SDS011;44843;44.728;10.396;2023-03-01T15:41:29;24.83;;;11.70;;
59052;SDS011;44843;44.728;10.396;2023-03-01T15:44:03;20.58;;;11.90;;
59052;SDS011;44843;44.728;10.396;2023-03-01T15:46:38;21.42;;;11.05;;
59052;SDS011;44843;44.728;10.396;2023-03-01T15:49:04;20.65;;;11.75;;
59052;SDS011;44843;44.728;10.396;2023-03-01T15:51:34;21.25;;;12.45;;
59052;SDS011;44843;44.728;10.396;2023-03-01T15:54:05;21.27;;;11.52;;
59052;SDS011;44843;44.728;10.396;2023-03-01T15:56:31;19.25;;;10.63;;
59052;SDS011;44843;44.728;10.396;2023-03-01T15:59:00;21.55;;;11.10;;
59052;SDS011;44843;44.728;10.396;2023-03-01T16:01:26;22.17;;;12.23;;
59052;SDS011;44843;44.728;10.396;2023-03-01T16:03:51;21.25;;;9.88;;
59052;SDS011;44843;44.728;10.396;2023-03-01T16:06:18;21.55;;;10.70;;
59052;SDS011;44843;44.728;10.396;2023-03-01T16:08:43;22.10;;;11.38;;
59052;SDS011;44843;44.728;10.396;2023-03-01T16:11:11;22.48;;;10.73;;